createdAt,value
2018-01-23T00:00:16.774Z,3.70
2018-01-23T00:02:45.270Z,3.70
2018-01-23T00:05:13.792Z,3.70
2018-01-23T00:07:46.247Z,3.70
2018-01-23T00:10:14.727Z,3.60
2018-01-23T00:12:43.131Z,3.60
2018-01-23T00:15:12.283Z,3.60
2018-01-23T00:17:40.882Z,3.60
2018-01-23T00:20:10.034Z,3.70
2018-01-23T00:22:38.414Z,3.70
2018-01-23T00:25:06.931Z,3.80
2018-01-23T00:27:35.315Z,3.80
2018-01-23T00:30:03.824Z,3.90
2018-01-23T00:32:33.134Z,4.00
2018-01-23T00:35:01.565Z,3.90
2018-01-23T00:37:29.952Z,3.90
2018-01-23T00:39:58.530Z,4.00
2018-01-23T00:42:26.934Z,4.00
2018-01-23T00:44:55.349Z,4.10
2018-01-23T00:47:23.823Z,4.10
2018-01-23T00:49:52.994Z,4.20
2018-01-23T00:52:21.368Z,4.20
2018-01-23T00:54:51.054Z,4.20
2018-01-23T00:57:19.466Z,4.30
2018-01-23T00:59:47.829Z,4.20
2018-01-23T01:02:16.683Z,4.20
2018-01-23T01:04:45.867Z,4.00
2018-01-23T01:07:15.039Z,4.00
2018-01-23T01:09:43.676Z,4.00
2018-01-23T01:12:12.045Z,4.00
2018-01-23T01:14:40.427Z,4.00
2018-01-23T01:17:09.059Z,3.90
2018-01-23T01:19:37.455Z,3.90
2018-01-23T01:22:05.867Z,3.90
2018-01-23T01:24:35.118Z,3.90
2018-01-23T01:27:04.236Z,3.80
2018-01-23T01:29:32.695Z,3.80
2018-01-23T01:32:01.271Z,3.80
2018-01-23T01:34:29.679Z,3.90
2018-01-23T01:36:58.076Z,3.90
2018-01-23T01:39:26.545Z,3.80
2018-01-23T01:41:54.952Z,3.80
2018-01-23T01:44:23.326Z,3.80
2018-01-23T01:46:52.155Z,3.70
2018-01-23T01:49:20.566Z,3.70
2018-01-23T01:51:49.757Z,3.80
2018-01-23T01:54:19.006Z,3.70
2018-01-23T01:56:47.763Z,3.70
2018-01-23T01:59:16.934Z,3.70
2018-01-23T02:01:45.335Z,3.70
2018-01-23T02:04:13.883Z,3.60
2018-01-23T02:06:42.379Z,3.60
2018-01-23T02:09:10.803Z,3.70
2018-01-23T02:11:39.207Z,3.70
2018-01-23T02:14:08.587Z,3.70
2018-01-23T02:16:37.006Z,3.70
2018-01-23T02:19:05.597Z,3.70
2018-01-23T02:21:34.936Z,3.70
2018-01-23T02:24:03.344Z,3.70
2018-01-23T02:26:31.737Z,3.70
2018-01-23T02:29:00.533Z,3.70
2018-01-23T02:31:29.007Z,3.80
2018-01-23T02:33:57.415Z,3.70
2018-01-23T02:36:26.286Z,3.70
2018-01-23T02:38:54.702Z,3.70
2018-01-23T02:41:23.132Z,3.60
2018-01-23T02:43:51.714Z,3.60
2018-01-23T02:46:20.085Z,3.60
2018-01-23T02:48:48.465Z,3.60
2018-01-23T02:51:16.989Z,3.60
2018-01-23T02:53:45.383Z,3.70
2018-01-23T02:56:13.766Z,3.60
2018-01-23T02:58:42.717Z,3.60
2018-01-23T03:01:11.113Z,3.50
2018-01-23T03:03:39.535Z,3.40
2018-01-23T03:06:08.337Z,3.40
2018-01-23T03:08:37.509Z,3.20
2018-01-23T03:11:06.556Z,3.20
2018-01-23T03:13:35.922Z,3.00
2018-01-23T03:16:04.378Z,3.00
2018-01-23T03:18:32.768Z,2.90
2018-01-23T03:21:01.244Z,2.80
2018-01-23T03:23:30.295Z,2.80
2018-01-23T03:25:58.869Z,2.80
2018-01-23T03:28:27.376Z,2.70
2018-01-23T03:30:55.779Z,2.70
2018-01-23T03:33:24.975Z,2.80
2018-01-23T03:35:54.598Z,2.80
2018-01-23T03:38:23.734Z,2.80
2018-01-23T03:40:53.059Z,2.80
2018-01-23T03:43:22.373Z,2.80
2018-01-23T03:45:50.770Z,2.80
2018-01-23T03:48:19.940Z,2.80
2018-01-23T03:50:48.398Z,2.80
2018-01-23T03:53:16.768Z,2.90
2018-01-23T03:55:45.901Z,2.90
2018-01-23T03:58:14.394Z,2.90
2018-01-23T04:00:43.188Z,3.00
2018-01-23T04:03:11.560Z,2.90
2018-01-23T04:05:40.050Z,2.90
2018-01-23T04:08:08.442Z,2.80
2018-01-23T04:10:36.833Z,2.80
2018-01-23T04:13:05.342Z,2.80
2018-01-23T04:15:34.503Z,2.60
2018-01-23T04:18:02.889Z,2.60
2018-01-23T04:20:31.397Z,2.60
2018-01-23T04:22:59.785Z,2.50
2018-01-23T04:25:28.161Z,2.50
2018-01-23T04:27:56.631Z,2.50
2018-01-23T04:30:25.070Z,2.50
2018-01-23T04:32:54.206Z,2.60
2018-01-23T04:35:28.085Z,2.60
2018-01-23T04:37:57.261Z,2.80
2018-01-23T04:40:25.665Z,2.80
2018-01-23T04:42:54.823Z,3.00
2018-01-23T04:45:23.188Z,2.90
2018-01-23T04:47:51.535Z,3.00
2018-01-23T04:50:19.933Z,3.10
2018-01-23T04:52:48.330Z,3.10
2018-01-23T04:55:16.721Z,3.10
2018-01-23T04:57:45.514Z,3.10
2018-01-23T05:00:13.922Z,3.20
2018-01-23T05:02:42.606Z,3.20
2018-01-23T05:05:11.488Z,3.20
2018-01-23T05:07:39.880Z,3.20
2018-01-23T05:10:08.305Z,3.20
2018-01-23T05:12:37.548Z,3.30
2018-01-23T05:15:05.943Z,3.30
2018-01-23T05:17:34.341Z,3.20
2018-01-23T05:20:02.883Z,3.20
2018-01-23T05:22:31.319Z,3.30
2018-01-23T05:24:59.711Z,3.20
2018-01-23T05:27:28.213Z,3.30
2018-01-23T05:29:57.635Z,3.30
2018-01-23T05:32:26.799Z,3.30
2018-01-23T05:34:55.324Z,3.20
2018-01-23T05:37:23.724Z,3.30
2018-01-23T05:39:52.119Z,3.30
2018-01-23T05:42:20.633Z,3.30
2018-01-23T05:44:49.007Z,3.30
2018-01-23T05:47:17.372Z,3.30
2018-01-23T05:49:45.930Z,3.30
2018-01-23T05:52:14.350Z,3.30
2018-01-23T05:54:42.759Z,3.30
2018-01-23T05:57:11.320Z,3.30
2018-01-23T05:59:39.676Z,3.30
2018-01-23T06:02:08.855Z,3.40
2018-01-23T06:04:38.264Z,3.30
2018-01-23T06:07:06.642Z,3.30
2018-01-23T06:09:35.028Z,3.30
2018-01-23T06:12:03.521Z,3.30
2018-01-23T06:14:32.689Z,3.30
2018-01-23T06:17:01.105Z,3.30
2018-01-23T06:19:30.694Z,3.40
2018-01-23T06:21:59.093Z,3.30
2018-01-23T06:24:28.259Z,3.40
2018-01-23T06:26:56.728Z,3.30
2018-01-23T06:29:25.120Z,3.40
2018-01-23T06:31:53.585Z,3.40
2018-01-23T06:34:22.145Z,3.40
2018-01-23T06:36:51.391Z,3.40
2018-01-23T06:39:19.842Z,3.40
2018-01-23T06:41:49.700Z,3.50
2018-01-23T06:44:18.117Z,3.40
2018-01-23T06:46:46.642Z,3.40
2018-01-23T06:49:15.470Z,3.40
2018-01-23T06:51:43.892Z,3.50
2018-01-23T06:54:12.311Z,3.40
2018-01-23T06:56:44.860Z,3.40
2018-01-23T06:59:14.390Z,3.40
2018-01-23T07:01:45.081Z,3.40
2018-01-23T07:04:13.948Z,3.40
2018-01-23T07:06:42.351Z,3.40
2018-01-23T07:09:11.227Z,3.50
2018-01-23T07:11:42.474Z,3.40
2018-01-23T07:14:10.938Z,3.40
2018-01-23T07:16:40.394Z,3.40
2018-01-23T07:19:08.774Z,3.40
2018-01-23T07:21:37.482Z,3.50
2018-01-23T07:24:07.324Z,3.40
2018-01-23T07:26:36.511Z,3.50
2018-01-23T07:29:04.897Z,3.50
2018-01-23T07:31:34.172Z,3.60
2018-01-23T07:34:03.148Z,3.60
2018-01-23T07:36:32.435Z,3.60
2018-01-23T07:39:02.010Z,3.70
2018-01-23T07:41:31.161Z,3.70
2018-01-23T07:43:59.536Z,3.70
2018-01-23T07:46:28.124Z,3.70
2018-01-23T07:48:57.363Z,3.80
2018-01-23T07:51:26.628Z,3.80
2018-01-23T07:53:55.111Z,3.70
2018-01-23T07:56:23.650Z,3.80
2018-01-23T07:58:52.240Z,3.80
2018-01-23T08:01:21.914Z,3.80
2018-01-23T08:03:50.281Z,3.80
2018-01-23T08:06:19.206Z,3.80
2018-01-23T08:08:47.658Z,3.90
2018-01-23T08:11:17.214Z,3.90
2018-01-23T08:13:45.764Z,3.90
2018-01-23T08:16:14.937Z,4.00
2018-01-23T08:18:43.363Z,4.00
2018-01-23T08:21:12.363Z,4.00
2018-01-23T08:23:41.636Z,4.00
2018-01-23T08:26:10.564Z,4.00
2018-01-23T08:28:39.334Z,4.00
2018-01-23T08:31:07.689Z,4.10
2018-01-23T08:33:36.838Z,4.20
2018-01-23T08:36:06.562Z,4.20
2018-01-23T08:38:34.973Z,4.20
2018-01-23T08:41:04.188Z,4.30
2018-01-23T08:43:33.402Z,4.40
2018-01-23T08:46:01.776Z,4.40
2018-01-23T08:48:30.946Z,4.50
2018-01-23T08:50:59.449Z,4.50
2018-01-23T08:53:28.733Z,4.60
2018-01-23T08:55:57.120Z,4.60
2018-01-23T08:58:25.906Z,4.70
2018-01-23T09:00:54.296Z,4.80
2018-01-23T09:03:22.723Z,4.90
2018-01-23T09:05:52.308Z,4.90
2018-01-23T09:08:20.872Z,4.90
2018-01-23T09:10:49.258Z,5.00
2018-01-23T09:13:17.734Z,5.00
2018-01-23T09:15:46.165Z,5.10
2018-01-23T09:18:15.314Z,5.40
2018-01-23T09:20:44.150Z,5.30
2018-01-23T09:23:12.559Z,5.30
2018-01-23T09:25:41.010Z,5.30
2018-01-23T09:28:09.805Z,5.40
2018-01-23T09:30:38.162Z,5.40
2018-01-23T09:33:06.541Z,5.50
2018-01-23T09:35:35.046Z,5.60
2018-01-23T09:38:03.441Z,5.60
2018-01-23T09:40:32.642Z,5.80
2018-01-23T09:43:01.973Z,6.00
2018-01-23T09:45:31.116Z,6.10
2018-01-23T09:47:59.586Z,6.10
2018-01-23T09:50:28.086Z,6.20
2018-01-23T09:52:56.500Z,6.40
2018-01-23T09:55:24.998Z,6.60
2018-01-23T09:57:54.686Z,6.40
2018-01-23T10:00:23.097Z,6.40
2018-01-23T10:02:51.512Z,6.30
2018-01-23T10:05:19.887Z,6.30
2018-01-23T10:07:48.275Z,6.40
2018-01-23T10:10:16.915Z,6.40
2018-01-23T10:12:45.431Z,6.40
2018-01-23T10:15:13.836Z,6.30
2018-01-23T10:17:42.261Z,6.50
2018-01-23T10:20:10.774Z,6.50
2018-01-23T10:22:39.205Z,6.70
2018-01-23T10:25:07.598Z,6.90
2018-01-23T10:27:36.377Z,6.90
2018-01-23T10:30:04.807Z,7.00
2018-01-23T10:32:33.202Z,6.90
2018-01-23T10:35:02.413Z,7.00
2018-01-23T10:37:31.575Z,6.80
2018-01-23T10:39:59.949Z,6.80
2018-01-23T10:42:29.584Z,7.00
2018-01-23T10:44:57.976Z,7.00
2018-01-23T10:47:26.340Z,7.10
2018-01-23T10:49:54.816Z,7.20
2018-01-23T10:52:23.248Z,7.50
2018-01-23T10:54:52.431Z,7.60
2018-01-23T10:57:20.924Z,7.60
2018-01-23T10:59:50.294Z,7.60
2018-01-23T11:02:18.697Z,7.50
2018-01-23T11:04:47.201Z,7.50
2018-01-23T11:07:16.392Z,7.70
2018-01-23T11:09:44.863Z,7.70
2018-01-23T11:12:13.600Z,7.80
2018-01-23T11:14:42.760Z,8.30
2018-01-23T11:17:11.387Z,8.20
2018-01-23T11:19:40.375Z,8.20
2018-01-23T11:22:08.928Z,8.20
2018-01-23T11:24:37.334Z,8.20
2018-01-23T11:27:06.113Z,8.20
2018-01-23T11:29:35.142Z,8.20
2018-01-23T11:32:03.864Z,8.20
2018-01-23T11:34:33.157Z,8.20
2018-01-23T11:37:01.814Z,8.20
2018-01-23T11:39:30.416Z,8.10
2018-01-23T11:42:00.100Z,8.30
2018-01-23T11:44:29.000Z,8.30
2018-01-23T11:46:57.480Z,8.40
2018-01-23T11:49:25.978Z,8.50
2018-01-23T11:51:54.379Z,8.40
2018-01-23T11:54:22.826Z,8.30
2018-01-23T11:56:51.342Z,8.20
2018-01-23T11:59:19.724Z,8.20
2018-01-23T12:01:48.297Z,8.00
2018-01-23T12:04:16.733Z,7.90
2018-01-23T12:06:45.859Z,8.00
2018-01-23T12:09:14.419Z,8.00
2018-01-23T12:11:43.560Z,8.00
2018-01-23T12:14:12.103Z,8.00
2018-01-23T12:16:41.330Z,8.30
2018-01-23T12:19:09.720Z,8.20
2018-01-23T12:21:38.073Z,8.60
2018-01-23T12:24:07.383Z,9.40
2018-01-23T12:26:35.761Z,9.30
2018-01-23T12:29:04.140Z,9.40
2018-01-23T12:31:33.297Z,9.10
2018-01-23T12:34:02.591Z,9.10
2018-01-23T12:36:30.999Z,9.00
2018-01-23T12:38:59.528Z,8.90
2018-01-23T12:41:27.918Z,8.70
2018-01-23T12:43:56.380Z,8.60
2018-01-23T12:46:25.666Z,8.20
2018-01-23T12:48:54.056Z,8.20
2018-01-23T12:51:22.447Z,8.00
2018-01-23T12:53:51.750Z,8.00
2018-01-23T12:56:20.929Z,7.90
2018-01-23T12:58:49.309Z,7.90
2018-01-23T13:01:17.896Z,8.10
2018-01-23T13:03:47.079Z,8.00
2018-01-23T13:06:15.514Z,8.00
2018-01-23T13:08:44.776Z,8.10
2018-01-23T13:11:13.126Z,8.10
2018-01-23T13:13:41.482Z,8.00
2018-01-23T13:16:11.306Z,8.10
2018-01-23T13:18:40.440Z,8.20
2018-01-23T13:21:08.825Z,8.20
2018-01-23T13:23:38.104Z,8.60
2018-01-23T13:26:07.255Z,8.50
2018-01-23T13:28:35.634Z,8.50
2018-01-23T13:31:04.092Z,8.30
2018-01-23T13:33:32.476Z,8.30
2018-01-23T13:36:00.857Z,8.40
2018-01-23T13:38:29.686Z,8.50
2018-01-23T13:40:58.870Z,8.40
2018-01-23T13:43:27.273Z,8.40
2018-01-23T13:45:55.847Z,8.40
2018-01-23T13:48:24.225Z,8.40
2018-01-23T13:50:52.624Z,9.10
2018-01-23T13:53:21.150Z,10.00
2018-01-23T13:55:50.285Z,10.00
2018-01-23T13:58:18.727Z,10.00
2018-01-23T14:00:47.572Z,10.20
2018-01-23T14:03:15.944Z,9.90
2018-01-23T14:05:44.285Z,9.10
2018-01-23T14:08:13.530Z,8.40
2018-01-23T14:10:41.904Z,8.40
2018-01-23T14:13:10.282Z,8.10
2018-01-23T14:15:39.038Z,7.80
2018-01-23T14:18:07.391Z,7.70
2018-01-23T14:20:35.779Z,7.60
2018-01-23T14:23:04.295Z,7.60
2018-01-23T14:25:32.676Z,7.40
2018-01-23T14:28:01.263Z,7.60
2018-01-23T14:30:30.466Z,8.10
2018-01-23T14:32:59.649Z,9.10
2018-01-23T14:35:28.970Z,9.10
2018-01-23T14:37:58.149Z,9.60
2018-01-23T14:40:26.509Z,9.60
2018-01-23T14:42:55.486Z,9.10
2018-01-23T14:45:23.910Z,8.10
2018-01-23T14:47:52.376Z,7.30
2018-01-23T14:50:20.928Z,6.90
2018-01-23T14:52:50.090Z,6.30
2018-01-23T14:55:21.005Z,6.30
2018-01-23T14:57:49.805Z,6.10
2018-01-23T15:00:18.242Z,6.20
2018-01-23T15:02:46.682Z,6.20
2018-01-23T15:05:15.171Z,6.10
2018-01-23T15:07:43.533Z,6.10
2018-01-23T15:10:12.699Z,6.30
2018-01-23T15:12:41.369Z,6.30
2018-01-23T15:15:10.567Z,6.30
2018-01-23T15:17:39.084Z,6.30
2018-01-23T15:20:07.589Z,6.40
2018-01-23T15:22:35.973Z,6.60
2018-01-23T15:25:04.342Z,6.60
2018-01-23T15:27:32.877Z,6.20
2018-01-23T15:30:01.262Z,6.00
2018-01-23T15:32:29.667Z,5.80
2018-01-23T15:34:59.050Z,5.50
2018-01-23T15:37:27.459Z,5.50
2018-01-23T15:39:56.640Z,5.20
2018-01-23T15:42:25.596Z,5.10
2018-01-23T15:44:55.337Z,5.10
2018-01-23T15:47:23.703Z,4.90
2018-01-23T15:49:52.637Z,4.90
2018-01-23T15:52:20.998Z,4.80
2018-01-23T15:54:49.367Z,4.70
2018-01-23T15:57:17.898Z,4.70
2018-01-23T15:59:47.069Z,4.50
2018-01-23T16:02:15.447Z,4.50
2018-01-23T16:04:43.956Z,4.40
2018-01-23T16:07:12.356Z,4.40
2018-01-23T16:09:40.744Z,4.30
2018-01-23T16:12:10.018Z,4.30
2018-01-23T16:14:38.699Z,4.30
2018-01-23T16:17:07.134Z,4.30
2018-01-23T16:19:35.954Z,4.20
2018-01-23T16:22:04.358Z,4.30
2018-01-23T16:24:32.760Z,4.20
2018-01-23T16:27:01.542Z,4.20
2018-01-23T16:29:29.958Z,4.20
2018-01-23T16:31:59.190Z,4.00
2018-01-23T16:34:28.559Z,4.00
2018-01-23T16:36:57.745Z,4.00
2018-01-23T16:39:26.168Z,3.90
2018-01-23T16:41:55.392Z,3.90
2018-01-23T16:44:23.983Z,3.90
2018-01-23T16:46:53.172Z,3.90
2018-01-23T16:49:25.438Z,4.00
2018-01-23T16:51:54.086Z,3.90
2018-01-23T16:54:22.645Z,4.10
2018-01-23T16:56:51.470Z,4.20
2018-01-23T16:59:22.363Z,4.20
2018-01-23T17:01:51.125Z,4.20
2018-01-23T17:04:20.631Z,4.30
2018-01-23T17:06:54.895Z,4.40
2018-01-23T17:09:23.281Z,4.40
2018-01-23T17:11:51.678Z,4.50
2018-01-23T17:14:20.741Z,4.50
2018-01-23T17:16:49.305Z,4.60
2018-01-23T17:19:17.728Z,4.60
2018-01-23T17:21:46.491Z,4.60
2018-01-23T17:24:15.632Z,4.60
2018-01-23T17:26:46.451Z,4.60
2018-01-23T17:29:15.500Z,4.60
2018-01-23T17:31:44.078Z,4.60
2018-01-23T17:34:12.652Z,4.50
2018-01-23T17:36:41.607Z,4.50
2018-01-23T17:39:10.250Z,4.50
2018-01-23T17:41:38.830Z,4.50
2018-01-23T17:44:10.360Z,4.60
2018-01-23T17:46:38.775Z,4.60
2018-01-23T17:49:07.203Z,4.60
2018-01-23T17:51:36.467Z,4.50
2018-01-23T17:54:04.836Z,4.50
2018-01-23T17:56:33.390Z,4.50
2018-01-23T17:59:01.918Z,4.60
2018-01-23T18:01:30.335Z,4.50
2018-01-23T18:04:00.056Z,4.40
2018-01-23T18:06:29.035Z,4.40
2018-01-23T18:08:59.839Z,4.30
2018-01-23T18:11:28.836Z,4.30
2018-01-23T18:13:57.251Z,4.30
2018-01-23T18:16:25.649Z,4.20
2018-01-23T18:18:54.152Z,4.00
2018-01-23T18:21:23.320Z,3.80
2018-01-23T18:24:01.697Z,3.80
2018-01-23T18:26:30.441Z,3.70
2018-01-23T18:29:00.246Z,3.50
2018-01-23T18:31:29.716Z,3.40
2018-01-23T18:33:58.726Z,3.40
2018-01-23T18:36:27.525Z,3.40
2018-01-23T18:38:56.960Z,3.30
2018-01-23T18:41:26.851Z,3.20
2018-01-23T18:43:56.510Z,3.10
2018-01-23T18:46:27.187Z,3.00
2018-01-23T18:48:57.293Z,2.90
2018-01-23T18:51:26.191Z,2.90
2018-01-23T18:53:55.508Z,2.90
2018-01-23T18:56:25.215Z,2.90
2018-01-23T18:58:56.091Z,2.80
2018-01-23T19:01:25.183Z,2.80
2018-01-23T19:03:53.878Z,2.70
2018-01-23T19:06:23.263Z,2.50
2018-01-23T19:08:52.185Z,2.50
2018-01-23T19:11:21.541Z,2.40
2018-01-23T19:13:50.096Z,2.40
2018-01-23T19:16:21.209Z,2.30
2018-01-23T19:18:50.869Z,2.30
2018-01-23T19:21:22.324Z,2.20
2018-01-23T19:23:52.017Z,2.10
2018-01-23T19:26:20.487Z,2.10
2018-01-23T19:28:50.137Z,2.10
2018-01-23T19:31:18.578Z,2.10
2018-01-23T19:33:47.018Z,2.00
2018-01-23T19:36:15.522Z,2.00
2018-01-23T19:38:43.944Z,2.00
2018-01-23T19:41:12.545Z,2.00
2018-01-23T19:43:41.199Z,1.90
2018-01-23T19:46:09.650Z,1.90
2018-01-23T19:48:41.892Z,1.90
2018-01-23T19:51:10.744Z,1.80
2018-01-23T19:53:39.309Z,1.80
2018-01-23T19:56:07.969Z,1.80
2018-01-23T19:58:47.791Z,1.70
2018-01-23T20:01:17.543Z,1.60
2018-01-23T20:03:46.264Z,1.60
2018-01-23T20:06:14.714Z,1.60
2018-01-23T20:08:45.877Z,1.40
2018-01-23T20:11:15.970Z,1.30
2018-01-23T20:13:45.343Z,1.30
2018-01-23T20:16:14.164Z,1.20
2018-01-23T20:21:20.636Z,1.10
2018-01-23T20:23:50.205Z,1.10
2018-01-23T20:26:26.333Z,1.10
2018-01-23T20:28:55.779Z,1.10
2018-01-23T20:31:24.635Z,1.10
2018-01-23T20:33:54.134Z,1.10
2018-01-23T20:36:24.431Z,1.10
2018-01-23T20:38:55.094Z,1.00
2018-01-23T20:41:25.261Z,1.00
2018-01-23T20:43:54.087Z,1.00
2018-01-23T20:46:23.167Z,0.90
2018-01-23T20:48:54.871Z,0.80
2018-01-23T20:51:23.373Z,0.80
2018-01-23T20:53:52.642Z,0.60
2018-01-23T20:56:21.906Z,0.60
2018-01-23T20:58:50.334Z,0.60
2018-01-23T21:01:19.737Z,0.50
2018-01-23T21:03:48.345Z,0.50
2018-01-23T21:06:18.173Z,0.60
2018-01-23T21:08:46.705Z,0.60
2018-01-23T21:13:52.108Z,0.60
2018-01-23T21:16:21.986Z,0.60
2018-01-23T21:18:51.984Z,0.70
2018-01-23T21:21:20.941Z,0.70
2018-01-23T21:23:50.142Z,0.70
2018-01-23T21:26:19.013Z,0.70
2018-01-23T21:28:47.755Z,0.70
2018-01-23T21:31:19.771Z,0.60
2018-01-23T21:33:50.867Z,0.60
2018-01-23T21:36:19.470Z,0.50
2018-01-23T21:38:50.008Z,0.30
2018-01-23T21:41:21.483Z,0.30
2018-01-23T21:43:50.256Z,0.30
2018-01-23T21:46:18.853Z,0.20
2018-01-23T21:48:50.178Z,0.00
2018-01-23T21:51:19.615Z,0.00
2018-01-23T21:53:48.930Z,0.00
2018-01-23T21:56:20.211Z,-0.20
2018-01-23T21:58:48.710Z,-0.20
2018-01-23T22:01:18.048Z,-0.20
2018-01-23T22:03:48.987Z,-0.30
2018-01-23T22:06:17.470Z,-0.30
2018-01-23T22:08:46.789Z,-0.30
2018-01-23T22:11:16.823Z,-0.30
2018-01-23T22:13:45.590Z,-0.30
2018-01-23T22:16:17.037Z,-0.20
2018-01-23T22:18:48.103Z,-0.10
2018-01-23T22:21:17.831Z,-0.10
2018-01-23T22:23:47.057Z,0.30
2018-01-23T22:26:15.707Z,0.30
2018-01-23T22:28:45.246Z,1.20
2018-01-23T22:31:13.931Z,1.20
2018-01-23T22:33:44.434Z,1.80
2018-01-23T22:36:22.171Z,1.80
2018-01-23T22:38:50.627Z,2.20
2018-01-23T22:41:19.019Z,2.40
2018-01-23T22:43:47.660Z,2.50
2018-01-23T22:46:16.048Z,2.60
2018-01-23T22:48:44.410Z,2.70
2018-01-23T22:51:14.284Z,2.80
2018-01-23T22:53:42.678Z,2.90
2018-01-23T22:56:11.522Z,3.00
2018-01-23T22:58:40.695Z,3.10
2018-01-23T23:01:09.484Z,3.10
2018-01-23T23:03:39.101Z,3.10
2018-01-23T23:06:07.544Z,3.10
2018-01-23T23:08:36.675Z,3.20
2018-01-23T23:11:05.590Z,3.20
2018-01-23T23:13:33.934Z,3.30
2018-01-23T23:16:02.290Z,3.30
2018-01-23T23:18:31.789Z,3.30
2018-01-23T23:21:00.150Z,3.30
2018-01-23T23:23:28.515Z,3.30
2018-01-23T23:25:57.271Z,3.40
2018-01-23T23:28:25.997Z,3.30
2018-01-23T23:30:54.380Z,3.40
2018-01-23T23:33:23.683Z,3.50
2018-01-23T23:35:52.081Z,3.50
2018-01-23T23:38:20.484Z,3.50
2018-01-23T23:40:49.024Z,3.60
2018-01-23T23:43:17.768Z,3.60
2018-01-23T23:45:46.939Z,3.70
2018-01-23T23:48:15.411Z,3.70
2018-01-23T23:50:43.784Z,3.80
2018-01-23T23:53:13.076Z,4.00
2018-01-23T23:55:41.664Z,4.10
2018-01-23T23:58:10.042Z,4.20
